createdAt,value
2023-02-22T00:01:33.474Z,83.87
2023-02-22T00:03:05.227Z,83.91
2023-02-22T00:04:39.797Z,83.93
2023-02-22T00:06:17.162Z,84.00
2023-02-22T00:07:50.103Z,84.40
2023-02-22T00:09:21.868Z,84.30
2023-02-22T00:10:53.664Z,85.01
2023-02-22T00:12:25.406Z,84.89
2023-02-22T00:13:57.502Z,84.98
2023-02-22T00:15:29.367Z,85.21
2023-02-22T00:17:01.274Z,85.20
2023-02-22T00:18:32.962Z,84.61
2023-02-22T00:20:07.390Z,84.25
2023-02-22T00:21:39.188Z,84.59
2023-02-22T00:23:18.992Z,84.98
2023-02-22T00:24:50.758Z,85.08
2023-02-22T00:26:23.512Z,85.09
2023-02-22T00:27:56.266Z,85.07
2023-02-22T00:29:28.655Z,85.00
2023-02-22T00:31:00.462Z,84.81
2023-02-22T00:32:32.750Z,84.70
2023-02-22T00:34:04.512Z,84.73
2023-02-22T00:35:36.469Z,84.55
2023-02-22T00:37:08.222Z,84.38
2023-02-22T00:38:41.933Z,84.06
2023-02-22T00:40:21.477Z,83.80
2023-02-22T00:41:53.368Z,82.76
2023-02-22T00:43:25.149Z,82.82
2023-02-22T00:44:56.894Z,82.92
2023-02-22T00:46:28.711Z,82.63
2023-02-22T00:48:01.572Z,82.64
2023-02-22T00:49:33.294Z,83.05
2023-02-22T00:51:05.330Z,83.13
2023-02-22T00:52:37.702Z,83.34
2023-02-22T00:54:10.668Z,83.51
2023-02-22T00:55:42.423Z,83.66
2023-02-22T00:57:14.252Z,83.88
2023-02-22T00:58:46.013Z,83.79
2023-02-22T01:00:24.061Z,83.82
2023-02-22T01:01:56.235Z,84.32
2023-02-22T01:03:28.022Z,84.62
2023-02-22T01:05:01.592Z,84.50
2023-02-22T01:06:34.221Z,84.55
2023-02-22T01:08:08.527Z,84.58
2023-02-22T01:09:41.666Z,84.63
2023-02-22T01:11:16.060Z,84.91
2023-02-22T01:12:50.093Z,84.92
2023-02-22T01:14:24.084Z,84.32
2023-02-22T01:15:56.790Z,84.64
2023-02-22T01:17:28.564Z,84.79
2023-02-22T01:19:01.488Z,84.34
2023-02-22T01:20:33.405Z,84.36
2023-02-22T01:22:05.572Z,84.83
2023-02-22T01:23:37.447Z,84.80
2023-02-22T01:25:16.150Z,84.63
2023-02-22T01:26:52.506Z,84.75
2023-02-22T01:28:24.299Z,85.08
2023-02-22T01:29:56.071Z,85.01
2023-02-22T01:31:27.890Z,85.31
2023-02-22T01:33:00.394Z,85.82
2023-02-22T01:34:33.191Z,85.18
2023-02-22T01:36:11.354Z,85.52
2023-02-22T01:37:43.377Z,85.28
2023-02-22T01:39:17.905Z,85.57
2023-02-22T01:40:51.279Z,85.02
2023-02-22T01:42:24.140Z,85.38
2023-02-22T01:43:56.059Z,85.10
2023-02-22T01:45:30.648Z,85.18
2023-02-22T01:47:04.726Z,85.12
2023-02-22T01:48:42.458Z,85.57
2023-02-22T01:50:14.491Z,85.58
2023-02-22T01:51:52.938Z,85.65
2023-02-22T01:53:43.545Z,85.94
2023-02-22T01:55:17.256Z,85.95
2023-02-22T01:57:06.230Z,85.52
2023-02-22T01:58:42.843Z,85.57
2023-02-22T02:00:20.557Z,84.68
2023-02-22T02:01:52.518Z,85.26
2023-02-22T02:03:29.933Z,85.51
2023-02-22T02:05:01.888Z,85.23
2023-02-22T02:06:36.210Z,85.61
2023-02-22T02:08:25.942Z,85.69
2023-02-22T02:10:04.997Z,85.60
2023-02-22T02:11:40.431Z,85.87
2023-02-22T02:13:12.241Z,85.37
2023-02-22T02:14:44.755Z,84.96
2023-02-22T02:16:16.801Z,84.83
2023-02-22T02:17:51.992Z,84.77
2023-02-22T02:19:36.206Z,85.02
2023-02-22T02:21:29.615Z,85.52
2023-02-22T02:23:49.351Z,85.41
2023-02-22T02:26:08.973Z,85.65
2023-02-22T02:28:15.623Z,85.14
2023-02-22T02:30:06.437Z,85.20
2023-02-22T02:32:00.001Z,85.39
2023-02-22T02:33:34.096Z,85.28
2023-02-22T02:35:14.671Z,85.63
2023-02-22T02:37:31.042Z,85.83
2023-02-22T02:39:11.654Z,86.04
2023-02-22T02:41:04.473Z,86.10
2023-02-22T02:42:44.255Z,85.97
2023-02-22T02:44:25.471Z,86.50
2023-02-22T02:46:09.091Z,86.21
2023-02-22T02:47:48.102Z,86.48
2023-02-22T02:49:25.510Z,86.51
2023-02-22T02:51:00.458Z,86.34
2023-02-22T02:52:35.042Z,86.76
2023-02-22T02:54:10.323Z,86.11
2023-02-22T02:55:42.022Z,86.20
2023-02-22T02:57:13.873Z,86.69
2023-02-22T02:58:51.045Z,86.37
2023-02-22T03:00:28.892Z,86.38
2023-02-22T03:02:19.203Z,86.48
2023-02-22T03:04:17.103Z,87.12
2023-02-22T03:06:34.642Z,86.86
2023-02-22T03:08:20.928Z,87.07
2023-02-22T03:10:21.405Z,87.11
2023-02-22T03:12:15.046Z,86.95
2023-02-22T03:14:05.222Z,87.31
2023-02-22T03:16:03.267Z,87.27
2023-02-22T03:17:47.500Z,87.65
2023-02-22T03:19:32.754Z,87.68
2023-02-22T03:21:07.422Z,87.32
2023-02-22T03:22:50.205Z,87.53
2023-02-22T03:24:21.846Z,87.19
2023-02-22T03:26:03.427Z,87.28
2023-02-22T03:27:50.474Z,87.67
2023-02-22T03:29:26.323Z,87.84
2023-02-22T03:31:07.903Z,87.86
2023-02-22T03:32:44.189Z,87.78
2023-02-22T03:34:20.938Z,87.53
2023-02-22T03:36:03.465Z,87.81
2023-02-22T03:37:39.866Z,88.03
2023-02-22T03:39:16.911Z,87.81
2023-02-22T03:40:54.481Z,88.01
2023-02-22T03:42:31.823Z,87.80
2023-02-22T03:44:09.467Z,87.79
2023-02-22T03:45:45.370Z,88.20
2023-02-22T03:47:28.379Z,87.53
2023-02-22T03:49:09.816Z,87.65
2023-02-22T03:50:44.368Z,87.72
2023-02-22T03:52:16.242Z,87.37
2023-02-22T03:53:48.645Z,88.13
2023-02-22T03:55:21.153Z,87.71
2023-02-22T03:56:57.382Z,87.83
2023-02-22T03:58:32.059Z,88.18
2023-02-22T04:00:07.297Z,87.93
2023-02-22T04:01:44.676Z,88.69
2023-02-22T04:03:17.904Z,87.90
2023-02-22T04:04:49.937Z,88.00
2023-02-22T04:06:22.248Z,88.44
2023-02-22T04:07:56.171Z,88.70
2023-02-22T04:09:28.082Z,88.66
2023-02-22T04:11:01.673Z,88.66
2023-02-22T04:12:35.961Z,88.75
2023-02-22T04:14:09.856Z,88.40
2023-02-22T04:15:42.293Z,88.25
2023-02-22T04:17:15.369Z,88.09
2023-02-22T04:18:47.359Z,88.05
2023-02-22T04:20:25.686Z,87.89
2023-02-22T04:22:02.855Z,87.82
2023-02-22T04:23:38.751Z,88.15
2023-02-22T04:25:10.546Z,87.86
2023-02-22T04:26:42.284Z,88.35
2023-02-22T04:28:14.311Z,88.16
2023-02-22T04:29:54.664Z,87.94
2023-02-22T04:31:26.698Z,88.09
2023-02-22T04:33:00.360Z,88.53
2023-02-22T04:34:32.274Z,88.20
2023-02-22T04:36:04.354Z,88.36
2023-02-22T04:37:38.818Z,88.25
2023-02-22T04:39:12.225Z,88.19
2023-02-22T04:40:43.937Z,88.25
2023-02-22T04:42:15.778Z,88.23
2023-02-22T04:43:47.654Z,88.41
2023-02-22T04:45:25.809Z,88.63
2023-02-22T04:46:57.700Z,88.39
2023-02-22T04:48:29.599Z,89.03
2023-02-22T04:50:01.654Z,88.84
2023-02-22T04:51:38.669Z,89.18
2023-02-22T04:53:12.699Z,88.75
2023-02-22T04:54:44.755Z,89.10
2023-02-22T04:56:20.012Z,89.08
2023-02-22T04:57:52.102Z,88.74
2023-02-22T04:59:23.791Z,88.47
2023-02-22T05:01:01.191Z,88.85
2023-02-22T05:02:33.202Z,88.71
2023-02-22T05:04:06.780Z,88.60
2023-02-22T05:05:38.633Z,88.62
2023-02-22T05:07:10.371Z,89.22
2023-02-22T05:08:42.076Z,88.83
2023-02-22T05:10:14.096Z,88.93
2023-02-22T05:11:45.815Z,88.72
2023-02-22T05:13:17.573Z,88.25
2023-02-22T05:14:49.392Z,88.37
2023-02-22T05:16:21.663Z,88.68
2023-02-22T05:17:53.491Z,88.53
2023-02-22T05:19:25.306Z,88.48
2023-02-22T05:20:57.045Z,88.55
2023-02-22T05:22:29.391Z,88.67
2023-02-22T05:24:01.147Z,88.31
2023-02-22T05:25:33.726Z,88.75
2023-02-22T05:27:05.468Z,88.54
2023-02-22T05:28:37.166Z,88.12
2023-02-22T05:30:11.263Z,88.65
2023-02-22T05:31:43.155Z,88.13
2023-02-22T05:33:14.965Z,88.45
2023-02-22T05:34:48.251Z,88.49
2023-02-22T05:36:20.167Z,88.14
2023-02-22T05:37:52.948Z,88.02
2023-02-22T05:39:24.683Z,88.90
2023-02-22T05:40:57.048Z,88.59
2023-02-22T05:42:28.747Z,88.42
2023-02-22T05:44:00.518Z,88.49
2023-02-22T05:45:32.168Z,88.18
2023-02-22T05:47:03.970Z,89.02
2023-02-22T05:48:35.743Z,88.91
2023-02-22T05:50:08.284Z,89.63
2023-02-22T05:51:40.006Z,89.32
2023-02-22T05:53:11.736Z,89.63
2023-02-22T05:54:43.466Z,89.36
2023-02-22T05:56:21.744Z,89.65
2023-02-22T05:57:54.008Z,90.20
2023-02-22T05:59:25.829Z,90.06
2023-02-22T06:00:57.582Z,89.28
2023-02-22T06:02:29.400Z,88.63
2023-02-22T06:04:01.157Z,88.07
2023-02-22T06:05:33.018Z,87.62
2023-02-22T06:07:06.501Z,87.58
2023-02-22T06:08:38.140Z,87.61
2023-02-22T06:10:09.890Z,88.20
2023-02-22T06:11:41.701Z,87.10
2023-02-22T06:13:13.507Z,87.28
2023-02-22T06:14:47.973Z,87.35
2023-02-22T06:16:23.832Z,87.51
2023-02-22T06:17:56.880Z,87.63
2023-02-22T06:19:28.864Z,88.03
2023-02-22T06:21:01.155Z,88.18
2023-02-22T06:22:32.909Z,87.77
2023-02-22T06:24:04.867Z,87.61
2023-02-22T06:25:36.650Z,87.58
2023-02-22T06:27:08.413Z,87.36
2023-02-22T06:28:40.140Z,87.50
2023-02-22T06:30:13.534Z,87.29
2023-02-22T06:31:45.329Z,87.75
2023-02-22T06:33:17.073Z,87.92
2023-02-22T06:34:48.794Z,87.66
2023-02-22T06:36:20.524Z,87.44
2023-02-22T06:37:52.342Z,87.17
2023-02-22T06:39:25.583Z,86.71
2023-02-22T06:40:57.398Z,86.84
2023-02-22T06:42:29.136Z,86.64
2023-02-22T06:44:00.940Z,86.00
2023-02-22T06:45:32.769Z,86.30
2023-02-22T06:47:04.567Z,86.17
2023-02-22T06:48:38.340Z,86.23
2023-02-22T06:50:21.574Z,85.77
2023-02-22T06:51:54.523Z,85.66
2023-02-22T06:53:26.291Z,85.61
2023-02-22T06:54:58.015Z,84.91
2023-02-22T06:56:29.793Z,85.03
2023-02-22T06:58:02.987Z,84.79
2023-02-22T06:59:34.741Z,84.69
2023-02-22T07:01:07.907Z,84.20
2023-02-22T07:02:39.806Z,84.31
2023-02-22T07:04:11.600Z,84.55
2023-02-22T07:05:43.470Z,83.83
2023-02-22T07:07:15.115Z,83.76
2023-02-22T07:08:47.002Z,83.98
2023-02-22T07:10:20.975Z,83.66
2023-02-22T07:11:52.768Z,83.76
2023-02-22T07:13:24.535Z,83.42
2023-02-22T07:14:56.622Z,83.42
2023-02-22T07:16:28.398Z,83.23
2023-02-22T07:18:00.370Z,82.70
2023-02-22T07:19:32.043Z,82.83
2023-02-22T07:21:04.120Z,82.17
2023-02-22T07:22:35.843Z,82.68
2023-02-22T07:24:07.740Z,82.54
2023-02-22T07:25:39.421Z,82.15
2023-02-22T07:27:11.356Z,81.88
2023-02-22T07:28:43.178Z,81.42
2023-02-22T07:30:26.063Z,80.82
2023-02-22T07:31:58.009Z,80.52
2023-02-22T07:33:29.764Z,80.17
2023-02-22T07:35:03.041Z,79.53
2023-02-22T07:36:34.934Z,78.80
2023-02-22T07:38:10.649Z,77.41
2023-02-22T07:39:43.863Z,78.35
2023-02-22T07:41:19.251Z,78.44
2023-02-22T07:42:54.530Z,78.86
2023-02-22T07:44:26.420Z,78.10
2023-02-22T07:46:02.881Z,77.84
2023-02-22T07:47:34.744Z,77.93
2023-02-22T07:49:06.574Z,76.52
2023-02-22T07:50:38.711Z,77.35
2023-02-22T07:52:12.414Z,77.60
2023-02-22T07:53:44.157Z,76.34
2023-02-22T07:55:21.185Z,75.79
2023-02-22T07:56:52.885Z,76.38
2023-02-22T07:58:27.627Z,75.63
2023-02-22T07:59:59.349Z,75.82
2023-02-22T08:01:31.982Z,75.47
2023-02-22T08:03:07.205Z,75.20
2023-02-22T08:04:39.507Z,76.02
2023-02-22T08:06:11.248Z,75.53
2023-02-22T08:07:43.394Z,74.97
2023-02-22T08:09:15.193Z,75.32
2023-02-22T08:10:47.681Z,75.26
2023-02-22T08:12:19.419Z,75.76
2023-02-22T08:13:51.180Z,76.40
2023-02-22T08:15:24.972Z,76.38
2023-02-22T08:16:56.739Z,76.42
2023-02-22T08:18:28.725Z,75.67
2023-02-22T08:20:00.902Z,75.28
2023-02-22T08:21:32.664Z,75.43
2023-02-22T08:23:06.204Z,75.58
2023-02-22T08:24:37.991Z,74.39
2023-02-22T08:26:15.654Z,74.65
2023-02-22T08:27:48.380Z,74.54
2023-02-22T08:29:20.109Z,74.41
2023-02-22T08:30:52.349Z,73.52
2023-02-22T08:32:24.270Z,73.33
2023-02-22T08:33:56.187Z,73.36
2023-02-22T08:35:28.706Z,72.54
2023-02-22T08:37:00.576Z,67.25
2023-02-22T08:38:34.108Z,55.09
2023-02-22T08:40:06.143Z,48.33
2023-02-22T08:41:37.981Z,45.84
2023-02-22T08:43:09.636Z,44.41
2023-02-22T08:44:41.394Z,42.30
2023-02-22T08:46:13.170Z,42.72
2023-02-22T08:47:45.146Z,40.91
2023-02-22T08:49:17.944Z,38.63
2023-02-22T08:50:50.140Z,38.45
2023-02-22T08:52:21.859Z,38.69
2023-02-22T08:53:53.638Z,38.95
2023-02-22T08:55:28.034Z,38.55
2023-02-22T08:56:59.813Z,38.26
2023-02-22T08:58:31.564Z,39.75
2023-02-22T09:00:05.271Z,38.49
2023-02-22T09:01:37.536Z,34.27
2023-02-22T09:03:13.348Z,35.73
2023-02-22T09:04:45.198Z,38.51
2023-02-22T09:06:17.938Z,41.30
2023-02-22T09:07:49.923Z,44.08
2023-02-22T09:09:21.756Z,45.13
2023-02-22T09:10:53.814Z,46.69
2023-02-22T09:12:25.599Z,49.03
2023-02-22T09:13:57.380Z,48.58
2023-02-22T09:15:29.927Z,51.88
2023-02-22T09:17:03.530Z,52.17
2023-02-22T09:18:44.019Z,52.88
2023-02-22T09:20:18.470Z,51.86
2023-02-22T09:21:54.797Z,50.20
2023-02-22T09:23:27.486Z,47.82
2023-02-22T09:25:02.651Z,46.56
2023-02-22T09:26:39.577Z,44.44
2023-02-22T09:28:11.466Z,43.72
2023-02-22T09:29:43.262Z,41.41
2023-02-22T09:31:15.235Z,41.36
2023-02-22T09:32:47.250Z,40.55
2023-02-22T09:34:20.983Z,36.53
2023-02-22T09:35:52.942Z,35.22
2023-02-22T09:37:24.629Z,34.83
2023-02-22T09:38:56.431Z,32.62
2023-02-22T09:40:30.818Z,33.74
2023-02-22T09:42:42.237Z,32.88
2023-02-22T09:44:19.684Z,32.35
2023-02-22T09:46:19.334Z,34.55
2023-02-22T09:48:08.129Z,37.53
2023-02-22T09:50:04.642Z,39.08
2023-02-22T09:51:43.388Z,40.69
2023-02-22T09:53:44.530Z,43.65
2023-02-22T09:55:25.649Z,42.36
2023-02-22T09:57:00.882Z,45.15
2023-02-22T09:58:35.477Z,44.52
2023-02-22T10:00:13.617Z,44.95
2023-02-22T10:01:51.380Z,41.19
2023-02-22T10:03:45.065Z,39.27
2023-02-22T10:05:26.211Z,41.29
2023-02-22T10:07:25.975Z,36.96
2023-02-22T10:09:01.267Z,34.48
2023-02-22T10:10:39.370Z,32.03
2023-02-22T10:12:29.995Z,29.83
2023-02-22T10:14:38.832Z,31.91
2023-02-22T10:16:31.806Z,35.26
2023-02-22T10:18:44.348Z,34.56
2023-02-22T10:20:18.989Z,36.14
2023-02-22T10:21:57.728Z,34.95
2023-02-22T10:23:29.354Z,34.08
2023-02-22T10:25:21.965Z,34.14
2023-02-22T10:26:56.659Z,33.72
2023-02-22T10:28:38.413Z,32.75
2023-02-22T10:30:26.681Z,34.80
2023-02-22T10:32:00.034Z,38.80
2023-02-22T10:33:39.691Z,42.15
2023-02-22T10:35:29.825Z,43.25
2023-02-22T10:37:16.057Z,44.44
2023-02-22T10:39:28.272Z,43.62
2023-02-22T10:41:09.073Z,44.74
2023-02-22T10:42:40.712Z,45.72
2023-02-22T10:44:12.387Z,47.30
2023-02-22T10:45:44.695Z,46.79
2023-02-22T10:47:21.074Z,46.35
2023-02-22T10:48:56.821Z,47.09
2023-02-22T10:50:31.315Z,47.77
2023-02-22T10:52:10.964Z,45.67
2023-02-22T10:53:42.947Z,44.71
2023-02-22T10:55:16.320Z,45.33
2023-02-22T10:56:52.252Z,45.71
2023-02-22T10:58:24.496Z,45.34
2023-02-22T10:59:57.685Z,45.08
2023-02-22T11:01:32.477Z,44.91
2023-02-22T11:03:16.740Z,45.19
2023-02-22T11:04:54.511Z,45.91
2023-02-22T11:06:26.286Z,45.70
2023-02-22T11:08:19.252Z,45.40
2023-02-22T11:10:01.062Z,45.19
2023-02-22T11:11:34.125Z,46.00
2023-02-22T11:13:18.676Z,46.02
2023-02-22T11:14:50.359Z,45.47
2023-02-22T11:16:51.483Z,46.09
2023-02-22T11:18:31.959Z,46.43
2023-02-22T11:20:03.902Z,46.40
2023-02-22T11:21:35.585Z,46.66
2023-02-22T11:23:08.323Z,46.29
2023-02-22T11:24:57.986Z,45.91
2023-02-22T11:26:41.336Z,46.12
2023-02-22T11:28:20.156Z,46.56
2023-02-22T11:29:52.349Z,46.98
2023-02-22T11:31:30.163Z,46.08
2023-02-22T11:33:17.132Z,47.12
2023-02-22T11:36:51.604Z,46.79
2023-02-22T11:38:34.425Z,47.17
2023-02-22T11:40:22.046Z,47.16
2023-02-22T11:41:56.386Z,47.79
2023-02-22T11:43:28.051Z,47.51
2023-02-22T11:45:10.408Z,47.54
2023-02-22T11:46:43.041Z,47.88
2023-02-22T11:48:21.055Z,48.12
2023-02-22T11:49:53.637Z,48.43
2023-02-22T11:51:35.490Z,48.79
2023-02-22T11:53:25.400Z,47.73
2023-02-22T11:55:36.271Z,46.98
2023-02-22T11:57:32.889Z,46.98
2023-02-22T11:59:29.158Z,47.57
2023-02-22T12:01:26.518Z,48.12
2023-02-22T12:03:38.915Z,47.10
2023-02-22T12:05:59.293Z,47.21
2023-02-22T12:08:13.907Z,46.56
2023-02-22T12:10:18.376Z,45.89
2023-02-22T12:11:55.004Z,46.11
2023-02-22T12:13:59.330Z,45.26
2023-02-22T12:15:57.381Z,44.60
2023-02-22T12:17:59.336Z,43.93
2023-02-22T12:19:41.788Z,45.71
2023-02-22T12:21:18.973Z,46.12
2023-02-22T12:23:01.153Z,45.44
2023-02-22T12:24:46.226Z,43.10
2023-02-22T12:26:33.678Z,43.38
2023-02-22T12:28:25.629Z,43.77
2023-02-22T12:30:05.697Z,43.04
2023-02-22T12:31:55.033Z,45.07
2023-02-22T12:33:34.116Z,45.84
2023-02-22T12:35:16.419Z,46.14
2023-02-22T12:37:11.052Z,46.29
2023-02-22T12:38:48.634Z,44.21
2023-02-22T12:40:26.951Z,43.13
2023-02-22T12:42:01.792Z,43.22
2023-02-22T12:43:41.693Z,43.82
2023-02-22T12:45:22.584Z,42.99
2023-02-22T12:46:58.298Z,42.46
2023-02-22T12:48:48.787Z,42.48
2023-02-22T12:50:23.372Z,43.00
2023-02-22T12:52:33.718Z,42.48
2023-02-22T12:54:11.963Z,43.03
2023-02-22T12:55:52.332Z,43.29
2023-02-22T12:57:45.562Z,43.52
2023-02-22T12:59:35.723Z,43.39
2023-02-22T13:01:17.928Z,41.82
2023-02-22T13:02:58.443Z,43.32
2023-02-22T13:04:32.863Z,42.85
2023-02-22T13:06:13.320Z,42.91
2023-02-22T13:08:13.538Z,44.01
2023-02-22T13:10:26.471Z,43.14
2023-02-22T13:12:03.639Z,43.79
2023-02-22T13:13:44.390Z,43.44
2023-02-22T13:15:40.485Z,43.72
2023-02-22T13:17:31.036Z,44.31
2023-02-22T13:19:30.754Z,44.43
2023-02-22T13:21:39.236Z,44.40
2023-02-22T13:23:32.502Z,44.90
2023-02-22T13:25:09.161Z,45.82
2023-02-22T13:26:50.619Z,44.72
2023-02-22T13:28:33.971Z,43.84
2023-02-22T13:30:14.537Z,44.35
2023-02-22T13:32:05.168Z,42.92
2023-02-22T13:33:39.695Z,42.92
2023-02-22T13:35:20.642Z,43.39
2023-02-22T13:37:21.898Z,42.92
2023-02-22T13:39:21.347Z,42.67
2023-02-22T13:41:15.095Z,42.57
2023-02-22T13:43:07.322Z,42.80
2023-02-22T13:44:53.915Z,42.52
2023-02-22T13:46:48.485Z,44.14
2023-02-22T13:48:22.852Z,45.04
2023-02-22T13:50:30.955Z,43.26
2023-02-22T13:52:17.234Z,43.60
2023-02-22T13:53:57.437Z,43.18
2023-02-22T13:55:33.030Z,43.87
2023-02-22T13:57:17.284Z,44.10
2023-02-22T13:58:52.782Z,43.53
2023-02-22T14:00:38.821Z,44.45
2023-02-22T14:02:50.628Z,44.35
2023-02-22T14:04:28.544Z,44.14
2023-02-22T14:06:01.414Z,44.32
2023-02-22T14:07:34.155Z,44.00
2023-02-22T14:09:14.815Z,44.24
2023-02-22T14:10:56.545Z,45.02
2023-02-22T14:12:31.295Z,44.77
2023-02-22T14:14:03.055Z,44.96
2023-02-22T14:15:35.698Z,46.11
2023-02-22T14:17:22.907Z,46.05
2023-02-22T14:19:09.965Z,46.36
2023-02-22T14:20:43.680Z,46.76
2023-02-22T14:22:27.674Z,46.62
2023-02-22T14:24:12.684Z,47.54
2023-02-22T14:25:45.133Z,47.66
2023-02-22T14:27:17.998Z,47.39
2023-02-22T14:28:52.536Z,47.03
2023-02-22T14:30:33.885Z,47.21
2023-02-22T14:32:12.792Z,46.87
2023-02-22T14:34:19.938Z,46.77
2023-02-22T14:35:52.722Z,47.34
2023-02-22T14:37:28.634Z,47.30
2023-02-22T14:39:13.522Z,47.92
2023-02-22T14:40:51.352Z,47.53
2023-02-22T14:42:28.837Z,47.44
2023-02-22T14:44:04.566Z,47.58
2023-02-22T14:45:58.719Z,48.07
2023-02-22T14:47:30.642Z,49.09
2023-02-22T14:49:10.075Z,48.29
2023-02-22T14:50:44.234Z,48.51
2023-02-22T14:52:23.190Z,48.05
2023-02-22T14:54:03.582Z,48.20
2023-02-22T14:55:43.206Z,48.59
2023-02-22T14:57:29.498Z,48.25
2023-02-22T14:59:01.498Z,48.28
2023-02-22T15:00:43.501Z,48.49
2023-02-22T15:02:15.764Z,48.45
2023-02-22T15:03:51.446Z,48.32
2023-02-22T15:05:34.518Z,48.09
2023-02-22T15:07:31.233Z,48.09
2023-02-22T15:09:14.678Z,48.33
2023-02-22T15:10:49.072Z,48.42
2023-02-22T15:12:31.223Z,48.30
2023-02-22T15:14:24.303Z,48.30
2023-02-22T15:16:08.041Z,49.30
2023-02-22T15:17:40.963Z,49.24
2023-02-22T15:19:13.272Z,49.56
2023-02-22T15:20:48.455Z,49.06
2023-02-22T15:22:25.317Z,49.10
2023-02-22T15:24:06.655Z,49.08
2023-02-22T15:25:39.344Z,49.59
2023-02-22T15:27:17.824Z,49.04
2023-02-22T15:28:55.027Z,49.23
2023-02-22T15:30:29.372Z,49.62
2023-02-22T15:32:01.460Z,49.95
2023-02-22T15:33:38.229Z,49.49
2023-02-22T15:35:26.726Z,49.93
2023-02-22T15:37:19.217Z,49.92
2023-02-22T15:38:53.531Z,50.35
2023-02-22T15:40:33.127Z,50.18
2023-02-22T15:42:08.070Z,50.60
2023-02-22T15:43:41.057Z,51.03
2023-02-22T15:45:20.095Z,51.46
2023-02-22T15:46:55.284Z,51.73
2023-02-22T15:48:28.772Z,51.88
2023-02-22T15:50:23.467Z,51.88
2023-02-22T15:52:23.558Z,52.48
2023-02-22T15:53:55.716Z,52.68
2023-02-22T15:55:35.655Z,52.93
2023-02-22T15:57:07.656Z,53.06
2023-02-22T15:58:40.363Z,52.92
2023-02-22T16:00:42.921Z,53.06
2023-02-22T16:02:42.458Z,53.45
2023-02-22T16:04:32.153Z,54.14
2023-02-22T16:06:10.573Z,55.32
2023-02-22T16:07:48.114Z,54.76
2023-02-22T16:09:29.664Z,55.18
2023-02-22T16:11:04.327Z,55.62
2023-02-22T16:12:36.349Z,55.13
2023-02-22T16:14:30.776Z,55.43
2023-02-22T16:16:04.593Z,55.65
2023-02-22T16:17:36.403Z,55.71
2023-02-22T16:19:36.525Z,55.64
2023-02-22T16:21:14.073Z,56.45
2023-02-22T16:22:50.304Z,55.96
2023-02-22T16:24:33.769Z,56.25
2023-02-22T16:26:21.302Z,56.52
2023-02-22T16:27:58.167Z,56.75
2023-02-22T16:29:30.266Z,57.03
2023-02-22T16:31:03.405Z,57.25
2023-02-22T16:32:35.375Z,57.37
2023-02-22T16:34:08.704Z,58.00
2023-02-22T16:35:41.106Z,58.03
2023-02-22T16:37:22.409Z,58.11
2023-02-22T16:38:54.349Z,57.89
2023-02-22T16:40:26.179Z,58.52
2023-02-22T16:42:00.230Z,57.33
2023-02-22T16:43:35.318Z,57.56
2023-02-22T16:45:07.625Z,58.35
2023-02-22T16:46:41.968Z,58.44
2023-02-22T16:48:27.547Z,59.12
2023-02-22T16:49:59.471Z,59.49
2023-02-22T16:51:42.956Z,59.21
2023-02-22T16:53:20.147Z,58.89
2023-02-22T16:54:52.406Z,60.06
2023-02-22T16:56:31.235Z,59.98
2023-02-22T16:58:04.791Z,60.21
2023-02-22T16:59:39.775Z,59.94
2023-02-22T17:01:12.864Z,59.50
2023-02-22T17:02:45.491Z,59.06
2023-02-22T17:04:21.840Z,59.83
2023-02-22T17:05:53.856Z,60.49
2023-02-22T17:07:30.865Z,60.85
2023-02-22T17:09:02.777Z,61.33
2023-02-22T17:10:35.474Z,61.03
2023-02-22T17:12:07.358Z,60.90
2023-02-22T17:13:40.735Z,61.73
2023-02-22T17:15:42.168Z,61.96
2023-02-22T17:17:15.642Z,61.63
2023-02-22T17:18:49.949Z,61.37
2023-02-22T17:20:32.263Z,61.72
2023-02-22T17:22:06.179Z,61.76
2023-02-22T17:23:38.170Z,61.60
2023-02-22T17:25:38.456Z,61.93
2023-02-22T17:27:10.273Z,62.54
2023-02-22T17:28:43.811Z,62.64
2023-02-22T17:30:17.269Z,62.86
2023-02-22T17:31:49.271Z,63.18
2023-02-22T17:33:27.487Z,64.02
2023-02-22T17:34:59.299Z,63.87
2023-02-22T17:36:32.476Z,63.89
2023-02-22T17:38:06.385Z,64.19
2023-02-22T17:39:38.163Z,63.66
2023-02-22T17:41:09.978Z,64.44
2023-02-22T17:42:43.167Z,64.55
2023-02-22T17:44:15.300Z,64.73
2023-02-22T17:45:47.458Z,65.04
2023-02-22T17:47:19.168Z,64.71
2023-02-22T17:48:54.678Z,65.35
2023-02-22T17:50:26.950Z,65.20
2023-02-22T17:51:58.710Z,65.22
2023-02-22T17:53:30.846Z,64.42
2023-02-22T17:55:02.564Z,64.17
2023-02-22T17:56:34.500Z,64.26
2023-02-22T17:58:07.314Z,64.07
2023-02-22T17:59:40.580Z,64.05
2023-02-22T18:01:29.804Z,64.19
2023-02-22T18:03:12.898Z,64.36
2023-02-22T18:04:44.774Z,64.54
2023-02-22T18:06:22.622Z,64.73
2023-02-22T18:07:56.342Z,65.10
2023-02-22T18:09:28.177Z,65.29
2023-02-22T18:11:05.225Z,65.17
2023-02-22T18:12:37.075Z,65.05
2023-02-22T18:14:10.946Z,64.95
2023-02-22T18:15:43.232Z,65.13
2023-02-22T18:17:15.140Z,65.49
2023-02-22T18:18:49.485Z,66.04
2023-02-22T18:20:40.134Z,66.41
2023-02-22T18:22:12.023Z,65.48
2023-02-22T18:23:47.170Z,65.18
2023-02-22T18:25:18.910Z,65.91
2023-02-22T18:26:50.795Z,65.84
2023-02-22T18:28:23.358Z,66.18
2023-02-22T18:29:55.178Z,66.04
2023-02-22T18:31:26.998Z,66.04
2023-02-22T18:32:58.888Z,66.03
2023-02-22T18:34:30.940Z,65.94
2023-02-22T18:36:03.092Z,66.14
2023-02-22T18:37:34.939Z,65.71
2023-02-22T18:39:11.706Z,65.51
2023-02-22T18:40:46.931Z,65.54
2023-02-22T18:42:21.486Z,65.74
2023-02-22T18:43:55.570Z,66.19
2023-02-22T18:45:28.065Z,66.16
2023-02-22T18:46:59.833Z,67.27
2023-02-22T18:48:32.864Z,67.49
2023-02-22T18:50:04.959Z,67.74
2023-02-22T18:51:36.812Z,67.53
2023-02-22T18:53:08.697Z,67.89
2023-02-22T18:54:44.871Z,68.04
2023-02-22T18:56:22.117Z,67.72
2023-02-22T18:57:55.695Z,67.82
2023-02-22T18:59:27.593Z,68.18
2023-02-22T19:01:04.630Z,68.40
2023-02-22T19:02:36.844Z,68.13
2023-02-22T19:04:09.924Z,68.33
2023-02-22T19:05:41.723Z,68.54
2023-02-22T19:07:18.362Z,68.88
2023-02-22T19:08:51.012Z,69.21
2023-02-22T19:10:22.894Z,69.29
2023-02-22T19:11:54.574Z,69.32
2023-02-22T19:13:26.242Z,69.09
2023-02-22T19:14:59.446Z,69.00
2023-02-22T19:16:32.377Z,69.29
2023-02-22T19:18:04.401Z,69.77
2023-02-22T19:19:35.981Z,69.82
2023-02-22T19:21:10.765Z,69.72
2023-02-22T19:22:42.427Z,70.18
2023-02-22T19:24:14.313Z,70.06
2023-02-22T19:25:47.454Z,70.13
2023-02-22T19:27:19.201Z,70.50
2023-02-22T19:28:52.752Z,70.65
2023-02-22T19:30:25.372Z,70.67
2023-02-22T19:31:57.637Z,70.53
2023-02-22T19:33:29.477Z,70.57
2023-02-22T19:35:06.748Z,70.64
2023-02-22T19:36:41.330Z,70.66
2023-02-22T19:38:13.295Z,70.55
2023-02-22T19:39:44.916Z,70.47
2023-02-22T19:41:20.097Z,70.73
2023-02-22T19:42:52.448Z,71.01
2023-02-22T19:44:26.736Z,71.08
2023-02-22T19:45:58.492Z,71.17
2023-02-22T19:47:30.432Z,71.25
2023-02-22T19:49:02.995Z,71.49
2023-02-22T19:50:34.765Z,71.72
2023-02-22T19:52:06.745Z,71.63
2023-02-22T19:53:40.058Z,71.80
2023-02-22T19:55:14.504Z,72.08
2023-02-22T19:56:50.865Z,72.24
2023-02-22T19:58:22.559Z,72.12
2023-02-22T19:59:54.823Z,72.48
2023-02-22T20:01:29.874Z,72.40
2023-02-22T20:03:05.899Z,72.19
2023-02-22T20:04:37.636Z,72.28
2023-02-22T20:06:11.300Z,72.70
2023-02-22T20:07:43.339Z,72.47
2023-02-22T20:09:17.964Z,72.93
2023-02-22T20:10:49.619Z,72.90
2023-02-22T20:12:21.463Z,72.70
2023-02-22T20:13:55.574Z,73.16
2023-02-22T20:15:28.139Z,73.04
2023-02-22T20:17:00.502Z,73.07
2023-02-22T20:18:32.233Z,73.09
2023-02-22T20:20:05.739Z,73.05
2023-02-22T20:21:37.398Z,73.58
2023-02-22T20:23:09.559Z,73.69
2023-02-22T20:24:42.074Z,74.00
2023-02-22T20:26:17.117Z,74.09
2023-02-22T20:27:49.867Z,73.94
2023-02-22T20:29:29.335Z,73.99
2023-02-22T20:31:01.035Z,73.94
2023-02-22T20:32:33.091Z,73.78
2023-02-22T20:34:08.099Z,73.98
2023-02-22T20:35:40.142Z,74.34
2023-02-22T20:37:12.022Z,74.16
2023-02-22T20:38:44.575Z,74.46
2023-02-22T20:40:16.892Z,74.30
2023-02-22T20:41:49.065Z,74.93
2023-02-22T20:43:20.901Z,74.77
2023-02-22T20:44:53.966Z,74.68
2023-02-22T20:46:27.857Z,74.50
2023-02-22T20:47:59.683Z,74.46
2023-02-22T20:49:31.349Z,74.66
2023-02-22T20:51:10.663Z,74.09
2023-02-22T20:52:42.420Z,74.67
2023-02-22T20:54:14.741Z,74.86
2023-02-22T20:55:53.199Z,75.20